Time;durP1;ratioP1;P1;durP2;ratioP2;P2;SDS_P1;SDS_P2;PMS_P1;PMS_P2;Temp;Humidity;BMP_temperature;BMP_pressure;BME280_temperature;BME280_humidity;BME280_pressure;Samples;Min_cycle;Max_cycle;Signal;HPM_P1;HPM_P2
2023/12/06 00:01:43;;;;;;;3.08;2.28;;;;;;;;;;5087035;28;20103;-81
2023/12/06 00:04:08;;;;;;;2.30;2.05;;;;;;;;;;5085440;28;20143;-81
2023/12/06 00:06:34;;;;;;;7.75;3.80;;;;;;;;;;5087509;28;20032;-82
2023/12/06 00:08:59;;;;;;;7.97;1.95;;;;;;;;;;5086146;28;20548;-82
2023/12/06 00:11:25;;;;;;;2.10;1.75;;;;;;;;;;5087310;28;20039;-81
2023/12/06 00:13:51;;;;;;;3.47;0.80;;;;;;;;;;5087063;28;20052;-80
2023/12/06 00:16:16;;;;;;;7.18;3.20;;;;;;;;;;5085669;28;20058;-82
2023/12/06 00:18:43;;;;;;;2.67;1.98;;;;;;;;;;5093327;28;20442;-81
2023/12/06 00:21:09;;;;;;;2.70;1.95;;;;;;;;;;5083946;28;20062;-81
2023/12/06 00:23:34;;;;;;;6.32;3.75;;;;;;;;;;5085402;28;20475;-81
2023/12/06 00:26:00;;;;;;;3.10;2.20;;;;;;;;;;5087147;28;20099;-80
2023/12/06 00:28:25;;;;;;;4.82;2.92;;;;;;;;;;5084205;28;20471;-81
2023/12/06 00:30:51;;;;;;;1.75;1.20;;;;;;;;;;5084166;28;20024;-80
2023/12/06 00:33:16;;;;;;;1.42;1.13;;;;;;;;;;5086893;28;20086;-80
2023/12/06 00:35:41;;;;;;;2.38;2.17;;;;;;;;;;5085960;28;20023;-80
2023/12/06 00:38:07;;;;;;;3.38;1.95;;;;;;;;;;5084161;28;20086;-80
2023/12/06 00:40:32;;;;;;;1.23;1.13;;;;;;;;;;5085706;28;20030;-81
2023/12/06 00:42:58;;;;;;;2.17;1.98;;;;;;;;;;5087187;28;20024;-81
2023/12/06 00:45:23;;;;;;;1.85;1.75;;;;;;;;;;5086341;28;20103;-80
2023/12/06 00:47:48;;;;;;;3.80;3.30;;;;;;;;;;5085180;28;20028;-80
2023/12/06 00:50:14;;;;;;;3.80;2.88;;;;;;;;;;5083918;28;20058;-81
2023/12/06 00:52:39;;;;;;;4.88;3.70;;;;;;;;;;5086351;28;20398;-80
2023/12/06 00:55:05;;;;;;;2.92;2.70;;;;;;;;;;5086526;28;20032;-80
2023/12/06 00:57:31;;;;;;;3.50;2.38;;;;;;;;;;5073822;28;20024;-80
2023/12/06 00:59:56;;;;;;;3.63;0.98;;;;;;;;;;5069081;28;20052;-82
2023/12/06 01:02:21;;;;;;;2.72;2.47;;;;;;;;;;5073213;28;20033;-81
2023/12/06 01:04:50;;;;;;;3.20;1.65;;;;;;;;;;5072234;28;20017;-81
2023/12/06 01:07:18;;;;;;;3.20;1.35;;;;;;;;;;5073333;28;20384;-81
2023/12/06 01:09:44;;;;;;;3.10;1.98;;;;;;;;;;5073839;28;20052;-82
2023/12/06 01:12:10;;;;;;;2.08;1.90;;;;;;;;;;5069555;28;20024;-81
2023/12/06 01:14:35;;;;;;;2.88;2.35;;;;;;;;;;5069892;28;20032;-81
2023/12/06 01:17:00;;;;;;;7.35;2.42;;;;;;;;;;5071922;28;20461;-81
2023/12/06 01:19:26;;;;;;;4.25;2.17;;;;;;;;;;5073484;28;20033;-82
2023/12/06 01:21:51;;;;;;;0.80;0.80;;;;;;;;;;5072740;28;20364;-82
2023/12/06 01:24:17;;;;;;;1.55;1.45;;;;;;;;;;5073474;28;20037;-80
2023/12/06 01:26:42;;;;;;;7.30;2.88;;;;;;;;;;5072057;28;20032;-82
2023/12/06 01:29:08;;;;;;;2.55;2.33;;;;;;;;;;5076006;28;20102;-82
2023/12/06 01:31:34;;;;;;;3.22;1.98;;;;;;;;;;5069775;28;20028;-83
2023/12/06 01:34:00;;;;;;;5.80;2.30;;;;;;;;;;5070801;28;20043;-82
2023/12/06 01:36:26;;;;;;;4.35;2.58;;;;;;;;;;5071871;28;20036;-81
2023/12/06 01:38:51;;;;;;;2.42;1.90;;;;;;;;;;5071339;28;20028;-82
2023/12/06 01:41:16;;;;;;;2.05;1.55;;;;;;;;;;5071095;28;20035;-82
2023/12/06 01:43:43;;;;;;;5.53;1.92;;;;;;;;;;5072572;28;20028;-80
2023/12/06 01:46:09;;;;;;;2.45;1.90;;;;;;;;;;5070406;28;20017;-82
2023/12/06 01:48:36;;;;;;;2.42;2.22;;;;;;;;;;5070303;28;20111;-80
2023/12/06 01:51:02;;;;;;;3.83;1.38;;;;;;;;;;5069268;28;20035;-79
2023/12/06 01:53:28;;;;;;;2.65;2.33;;;;;;;;;;5071144;28;20035;-79
2023/12/06 01:55:54;;;;;;;1.90;1.80;;;;;;;;;;5070252;28;20381;-80
2023/12/06 01:58:20;;;;;;;2.80;2.47;;;;;;;;;;5071865;28;20027;-80
2023/12/06 02:00:46;;;;;;;2.42;1.83;;;;;;;;;;5071194;28;20020;-80
2023/12/06 02:03:12;;;;;;;2.70;1.80;;;;;;;;;;5069726;28;20126;-79
2023/12/06 02:05:37;;;;;;;1.42;1.33;;;;;;;;;;5070988;28;20375;-80
2023/12/06 02:08:04;;;;;;;3.00;1.65;;;;;;;;;;5070125;28;20036;-79
2023/12/06 02:10:29;;;;;;;1.45;1.17;;;;;;;;;;5072744;28;20042;-80
2023/12/06 02:12:54;;;;;;;1.52;1.42;;;;;;;;;;5070863;28;20032;-79
2023/12/06 02:15:21;;;;;;;2.10;1.40;;;;;;;;;;5071386;28;20025;-80
2023/12/06 02:17:48;;;;;;;0.93;0.93;;;;;;;;;;5068175;28;20032;-80
2023/12/06 02:20:14;;;;;;;2.20;1.63;;;;;;;;;;5069373;28;20782;-80
2023/12/06 02:22:40;;;;;;;2.03;1.55;;;;;;;;;;5070162;28;20127;-80
2023/12/06 02:25:12;;;;;;;5.47;2.90;;;;;;;;;;5070793;28;20387;-80
2023/12/06 02:27:40;;;;;;;1.73;1.63;;;;;;;;;;5070224;28;20456;-80
2023/12/06 02:30:06;;;;;;;1.70;1.13;;;;;;;;;;5072183;28;20081;-79
2023/12/06 02:32:31;;;;;;;1.80;1.70;;;;;;;;;;5070264;28;20448;-81
2023/12/06 02:35:00;;;;;;;4.13;2.00;;;;;;;;;;5070157;28;20025;-81
2023/12/06 02:37:25;;;;;;;4.05;1.83;;;;;;;;;;5067985;28;20028;-80
2023/12/06 02:39:52;;;;;;;2.38;1.25;;;;;;;;;;5070622;28;20039;-79
2023/12/06 02:42:18;;;;;;;2.53;1.60;;;;;;;;;;5069600;28;20067;-80
2023/12/06 02:44:44;;;;;;;1.48;1.38;;;;;;;;;;5069354;28;20044;-80
2023/12/06 02:47:10;;;;;;;5.40;2.47;;;;;;;;;;5068762;28;20028;-79
2023/12/06 02:49:35;;;;;;;4.47;3.10;;;;;;;;;;5070245;28;20028;-80
2023/12/06 02:52:01;;;;;;;1.55;1.40;;;;;;;;;;5069521;28;20058;-79
2023/12/06 02:54:26;;;;;;;0.95;0.95;;;;;;;;;;5070061;28;20036;-80
2023/12/06 02:56:52;;;;;;;3.15;1.83;;;;;;;;;;5070352;28;20039;-80
2023/12/06 02:59:17;;;;;;;0.90;0.90;;;;;;;;;;5070541;28;20063;-79
2023/12/06 03:01:47;;;;;;;4.93;2.08;;;;;;;;;;5069908;28;20469;-80
2023/12/06 03:04:12;;;;;;;;;;;;;;;;;;5070229;28;20553;-80
2023/12/06 03:06:38;;;;;;;3.08;1.25;;;;;;;;;;5069326;28;19920;-81
2023/12/06 03:09:04;;;;;;;1.70;1.27;;;;;;;;;;5070202;28;20035;-80
2023/12/06 03:11:30;;;;;;;2.10;1.20;;;;;;;;;;5069294;28;20423;-80
2023/12/06 03:13:55;;;;;;;1.40;1.25;;;;;;;;;;5070012;28;20163;-80
2023/12/06 03:16:20;;;;;;;2.70;1.17;;;;;;;;;;5069544;28;20024;-79
2023/12/06 03:18:46;;;;;;;2.75;1.30;;;;;;;;;;5069671;28;20097;-79
2023/12/06 03:21:11;;;;;;;0.60;0.55;;;;;;;;;;5070214;28;20074;-80
2023/12/06 03:23:37;;;;;;;0.55;0.55;;;;;;;;;;5069949;28;20032;-80
2023/12/06 03:26:02;;;;;;;1.27;1.23;;;;;;;;;;5066845;28;20028;-80
2023/12/06 03:28:28;;;;;;;5.20;2.33;;;;;;;;;;5070174;28;20028;-81
2023/12/06 03:30:53;;;;;;;0.80;0.80;;;;;;;;;;5067067;28;20035;-80
2023/12/06 03:33:19;;;;;;;1.77;1.55;;;;;;;;;;5069283;28;20119;-79
2023/12/06 03:35:44;;;;;;;0.47;0.47;;;;;;;;;;5066690;28;20025;-80
2023/12/06 03:38:10;;;;;;;2.47;1.60;;;;;;;;;;5067128;28;20391;-81
2023/12/06 03:40:35;;;;;;;1.55;1.45;;;;;;;;;;5068652;28;20020;-80
2023/12/06 03:43:01;;;;;;;0.50;0.50;;;;;;;;;;5067544;28;20036;-80
2023/12/06 03:45:26;;;;;;;1.38;1.27;;;;;;;;;;5068767;28;20028;-80
2023/12/06 03:47:52;;;;;;;2.25;1.67;;;;;;;;;;5069558;28;20103;-81
2023/12/06 03:50:17;;;;;;;1.00;0.80;;;;;;;;;;5070436;28;20529;-81
2023/12/06 03:52:43;;;;;;;1.02;0.88;;;;;;;;;;5069028;28;20040;-80
2023/12/06 03:55:08;;;;;;;0.98;0.82;;;;;;;;;;5069691;28;20063;-81
2023/12/06 03:57:34;;;;;;;0.75;0.75;;;;;;;;;;5069052;28;20025;-81
2023/12/06 03:59:59;;;;;;;0.80;0.80;;;;;;;;;;5069230;28;20025;-80
2023/12/06 04:02:25;;;;;;;0.85;0.85;;;;;;;;;;5068543;28;20385;-81
2023/12/06 04:04:50;;;;;;;4.43;2.00;;;;;;;;;;5071237;28;20457;-81
2023/12/06 04:07:16;;;;;;;1.58;1.33;;;;;;;;;;5066432;28;20039;-81
2023/12/06 04:09:41;;;;;;;0.57;0.57;;;;;;;;;;5070370;28;20028;-81
2023/12/06 04:12:07;;;;;;;2.38;1.70;;;;;;;;;;5068424;28;20074;-80
2023/12/06 04:14:33;;;;;;;1.05;1.00;;;;;;;;;;5066818;28;20263;-80
2023/12/06 04:16:58;;;;;;;1.75;1.33;;;;;;;;;;5069934;28;20799;-83
2023/12/06 04:19:23;;;;;;;2.40;1.15;;;;;;;;;;5071821;28;20033;-83
2023/12/06 04:21:50;;;;;;;2.30;1.05;;;;;;;;;;5067145;28;20043;-83
2023/12/06 04:24:15;;;;;;;0.98;0.65;;;;;;;;;;5068096;28;20023;-83
2023/12/06 04:26:40;;;;;;;2.58;1.13;;;;;;;;;;5066639;28;20020;-83
2023/12/06 04:29:06;;;;;;;0.30;0.30;;;;;;;;;;5068324;28;20039;-81
2023/12/06 04:31:31;;;;;;;1.77;1.63;;;;;;;;;;5070036;28;20028;-81
2023/12/06 04:33:57;;;;;;;1.38;1.10;;;;;;;;;;5072637;28;20472;-79
2023/12/06 04:36:22;;;;;;;1.05;1.05;;;;;;;;;;5072332;28;20192;-80
2023/12/06 04:38:48;;;;;;;0.60;0.50;;;;;;;;;;5072517;28;21082;-80
2023/12/06 04:41:13;;;;;;;2.22;1.58;;;;;;;;;;5070405;28;20035;-81
2023/12/06 04:43:39;;;;;;;2.95;1.45;;;;;;;;;;5069553;28;20062;-81
2023/12/06 04:46:04;;;;;;;4.15;1.60;;;;;;;;;;5071895;28;20538;-81
2023/12/06 04:48:30;;;;;;;3.17;1.50;;;;;;;;;;5070503;28;20392;-81
2023/12/06 04:50:55;;;;;;;2.88;1.15;;;;;;;;;;5071203;28;20028;-81
2023/12/06 04:53:20;;;;;;;1.52;1.17;;;;;;;;;;5071151;28;20439;-81
2023/12/06 04:55:46;;;;;;;0.70;0.65;;;;;;;;;;5073969;28;20157;-80
2023/12/06 04:58:11;;;;;;;1.67;1.38;;;;;;;;;;5078927;28;20043;-81
2023/12/06 05:00:37;;;;;;;1.73;1.40;;;;;;;;;;5073324;28;20032;-81
2023/12/06 05:03:03;;;;;;;4.45;2.25;;;;;;;;;;5070413;28;20504;-80
2023/12/06 05:05:29;;;;;;;1.25;1.13;;;;;;;;;;5070145;28;20013;-79
2023/12/06 05:07:57;;;;;;;3.65;2.72;;;;;;;;;;5071431;28;20024;-79
2023/12/06 05:10:22;;;;;;;0.80;0.80;;;;;;;;;;5070521;28;20124;-79
2023/12/06 05:12:48;;;;;;;1.45;1.35;;;;;;;;;;5071629;28;20426;-79
2023/12/06 05:15:13;;;;;;;0.95;0.95;;;;;;;;;;5070008;28;20033;-79
2023/12/06 05:17:40;;;;;;;0.57;0.57;;;;;;;;;;5072483;28;20028;-79
2023/12/06 05:20:10;;;;;;;2.58;1.85;;;;;;;;;;5070522;28;20033;-79
2023/12/06 05:22:36;;;;;;;2.13;1.65;;;;;;;;;;5070551;28;20032;-82
2023/12/06 05:25:05;;;;;;;1.75;1.13;;;;;;;;;;5070031;28;20028;-81
2023/12/06 05:27:30;;;;;;;2.65;1.67;;;;;;;;;;5070717;28;20058;-81
2023/12/06 05:29:56;;;;;;;0.77;0.77;;;;;;;;;;5070758;28;20017;-81
2023/12/06 05:32:21;;;;;;;1.63;1.52;;;;;;;;;;5070945;28;20060;-80
2023/12/06 05:34:47;;;;;;;3.75;1.83;;;;;;;;;;5070589;28;20112;-79
2023/12/06 05:37:28;;;;;;;5.60;1.55;;;;;;;;;;5070893;28;20043;-80
2023/12/06 05:39:53;;;;;;;1.20;1.10;;;;;;;;;;5071012;28;20033;-81
2023/12/06 05:42:19;;;;;;;1.02;0.98;;;;;;;;;;5071606;28;20384;-80
2023/12/06 05:44:44;;;;;;;4.15;2.67;;;;;;;;;;5069703;28;20048;-80
2023/12/06 05:47:10;;;;;;;4.97;1.13;;;;;;;;;;5069694;28;20369;-78
2023/12/06 05:49:36;;;;;;;2.55;1.27;;;;;;;;;;5069182;28;20028;-79
2023/12/06 05:52:04;;;;;;;2.20;1.50;;;;;;;;;;5069196;28;20021;-79
2023/12/06 05:54:30;;;;;;;2.40;2.20;;;;;;;;;;5069901;28;20046;-79
2023/12/06 05:56:55;;;;;;;3.45;2.78;;;;;;;;;;5070203;28;20527;-79
2023/12/06 05:59:24;;;;;;;4.45;4.05;;;;;;;;;;5070082;28;20032;-80
2023/12/06 06:01:49;;;;;;;1.63;1.52;;;;;;;;;;5071283;28;20098;-79
2023/12/06 06:04:15;;;;;;;7.93;2.40;;;;;;;;;;5071739;28;20465;-77
2023/12/06 06:06:41;;;;;;;0.93;0.88;;;;;;;;;;5074254;28;20063;-78
2023/12/06 06:09:06;;;;;;;2.25;1.08;;;;;;;;;;5065496;28;20078;-77
2023/12/06 06:11:31;;;;;;;1.25;1.15;;;;;;;;;;5069632;28;20762;-79
2023/12/06 06:13:57;;;;;;;1.13;0.93;;;;;;;;;;5070058;28;20048;-79
2023/12/06 06:16:22;;;;;;;2.35;1.27;;;;;;;;;;5068829;28;20486;-78
2023/12/06 06:18:48;;;;;;;1.95;0.93;;;;;;;;;;5070756;28;20036;-78
2023/12/06 06:21:13;;;;;;;2.97;1.83;;;;;;;;;;5067389;28;20040;-78
2023/12/06 06:23:39;;;;;;;2.55;0.90;;;;;;;;;;5070204;28;20031;-77
2023/12/06 06:26:04;;;;;;;1.92;1.83;;;;;;;;;;5069927;28;20115;-78
2023/12/06 06:28:30;;;;;;;2.60;1.90;;;;;;;;;;5069793;28;20029;-78
2023/12/06 06:30:55;;;;;;;1.70;1.13;;;;;;;;;;5068652;28;20036;-80
2023/12/06 06:33:21;;;;;;;1.25;1.20;;;;;;;;;;5071367;28;20329;-78
2023/12/06 06:35:46;;;;;;;2.53;1.33;;;;;;;;;;5068797;28;20114;-79
2023/12/06 06:38:11;;;;;;;3.13;1.48;;;;;;;;;;5067456;28;20090;-77
2023/12/06 06:40:37;;;;;;;2.05;1.88;;;;;;;;;;5068045;28;20016;-78
2023/12/06 06:43:03;;;;;;;2.58;2.10;;;;;;;;;;5068305;28;20036;-80
2023/12/06 06:45:28;;;;;;;1.42;1.33;;;;;;;;;;5069171;28;20032;-79
2023/12/06 06:47:54;;;;;;;5.38;2.35;;;;;;;;;;5067012;28;20025;-78
2023/12/06 06:50:20;;;;;;;4.88;1.83;;;;;;;;;;5063338;28;20029;-79
2023/12/06 06:52:45;;;;;;;4.30;2.67;;;;;;;;;;5065533;28;20093;-77
2023/12/06 06:55:11;;;;;;;2.05;1.80;;;;;;;;;;5068461;28;20048;-80
2023/12/06 06:57:37;;;;;;;3.08;2.40;;;;;;;;;;5056795;28;20077;-77
2023/12/06 07:00:03;;;;;;;4.43;2.13;;;;;;;;;;5065020;28;20456;-79
2023/12/06 07:02:29;;;;;;;1.95;1.52;;;;;;;;;;5066253;28;20067;-79
2023/12/06 07:04:55;;;;;;;8.27;2.15;;;;;;;;;;5064316;28;20056;-82
2023/12/06 07:07:21;;;;;;;2.17;1.95;;;;;;;;;;5063938;28;20031;-77
2023/12/06 07:09:46;;;;;;;3.15;1.10;;;;;;;;;;5060330;28;20024;-78
2023/12/06 07:12:12;;;;;;;3.53;2.42;;;;;;;;;;5064505;28;20084;-79
2023/12/06 07:14:37;;;;;;;0.63;0.63;;;;;;;;;;5063684;28;20043;-78
2023/12/06 07:17:03;;;;;;;1.73;1.48;;;;;;;;;;5065866;28;20276;-77
2023/12/06 07:19:29;;;;;;;3.00;1.40;;;;;;;;;;5066224;28;20029;-77
2023/12/06 07:21:54;;;;;;;3.85;2.50;;;;;;;;;;5067909;28;20035;-76
2023/12/06 07:24:22;;;;;;;5.05;1.25;;;;;;;;;;5072689;28;20329;-78
2023/12/06 07:26:48;;;;;;;7.07;2.75;;;;;;;;;;5073284;28;20024;-78
2023/12/06 07:29:13;;;;;;;5.90;2.63;;;;;;;;;;5065296;28;20033;-77
2023/12/06 07:31:39;;;;;;;1.83;1.70;;;;;;;;;;5072547;28;20479;-77
2023/12/06 07:34:05;;;;;;;10.18;2.78;;;;;;;;;;5067054;28;20035;-79
2023/12/06 07:36:31;;;;;;;2.28;2.05;;;;;;;;;;5067721;28;20028;-79
2023/12/06 07:38:56;;;;;;;2.13;1.35;;;;;;;;;;5067135;28;20032;-80
2023/12/06 07:41:22;;;;;;;4.40;1.85;;;;;;;;;;5069876;28;20063;-77
2023/12/06 07:43:47;;;;;;;6.50;2.78;;;;;;;;;;5069385;28;20364;-77
2023/12/06 07:46:13;;;;;;;3.03;2.45;;;;;;;;;;5069734;28;20040;-78
2023/12/06 07:48:38;;;;;;;5.25;2.60;;;;;;;;;;5068522;28;20363;-77
2023/12/06 07:51:04;;;;;;;5.30;3.95;;;;;;;;;;5066886;28;20036;-77
2023/12/06 07:53:29;;;;;;;4.80;2.15;;;;;;;;;;5066588;28;20033;-80
2023/12/06 07:55:55;;;;;;;4.72;1.90;;;;;;;;;;5068180;28;20041;-78
2023/12/06 07:58:22;;;;;;;4.88;2.67;;;;;;;;;;5066955;28;20145;-78
2023/12/06 08:00:48;;;;;;;4.03;2.17;;;;;;;;;;5066170;28;20040;-78
2023/12/06 08:03:13;;;;;;;1.70;1.58;;;;;;;;;;5067006;28;20064;-76
2023/12/06 08:05:39;;;;;;;1.50;1.40;;;;;;;;;;5068530;28;20535;-79
2023/12/06 08:08:05;;;;;;;2.70;0.73;;;;;;;;;;5071907;28;20032;-78
2023/12/06 08:10:32;;;;;;;3.90;2.10;;;;;;;;;;5072070;28;20032;-79
2023/12/06 08:12:57;;;;;;;3.08;2.30;;;;;;;;;;5070983;28;20036;-79
2023/12/06 08:15:24;;;;;;;2.25;1.83;;;;;;;;;;5071798;28;20040;-77
2023/12/06 08:17:50;;;;;;;2.45;1.83;;;;;;;;;;5070365;28;20028;-79
2023/12/06 08:20:15;;;;;;;3.97;2.33;;;;;;;;;;5070881;28;20086;-79
2023/12/06 08:22:41;;;;;;;3.63;2.17;;;;;;;;;;5072223;28;20024;-80
2023/12/06 08:25:07;;;;;;;1.35;1.13;;;;;;;;;;5072446;28;20452;-79
2023/12/06 08:27:34;;;;;;;3.13;1.08;;;;;;;;;;5068345;28;20119;-77
2023/12/06 08:30:00;;;;;;;2.47;2.17;;;;;;;;;;5071369;28;20020;-78
2023/12/06 08:32:26;;;;;;;1.05;1.02;;;;;;;;;;5071083;28;20038;-77
2023/12/06 08:34:53;;;;;;;1.42;1.33;;;;;;;;;;5071525;28;20029;-78
2023/12/06 08:37:18;;;;;;;1.65;0.68;;;;;;;;;;5071418;28;20036;-77
2023/12/06 08:39:45;;;;;;;2.33;2.15;;;;;;;;;;5071823;28;20368;-78
2023/12/06 08:42:14;;;;;;;2.17;1.35;;;;;;;;;;5070835;28;20074;-77
2023/12/06 08:44:41;;;;;;;1.05;1.00;;;;;;;;;;5069442;28;20059;-79
2023/12/06 08:47:07;;;;;;;3.08;2.28;;;;;;;;;;5068535;28;20086;-77
2023/12/06 08:49:34;;;;;;;2.55;1.52;;;;;;;;;;5070782;28;20026;-79
2023/12/06 08:51:59;;;;;;;2.85;1.95;;;;;;;;;;5070593;28;20077;-79
2023/12/06 08:54:24;;;;;;;1.65;1.30;;;;;;;;;;5070542;28;20036;-80
2023/12/06 08:56:50;;;;;;;3.15;2.03;;;;;;;;;;5070564;28;20515;-80
2023/12/06 08:59:15;;;;;;;1.38;1.20;;;;;;;;;;5068480;28;20050;-78
2023/12/06 09:01:41;;;;;;;3.13;1.98;;;;;;;;;;5071125;28;20028;-80
2023/12/06 09:04:06;;;;;;;2.63;1.88;;;;;;;;;;5071358;28;20139;-79
2023/12/06 09:06:31;;;;;;;1.58;1.48;;;;;;;;;;5070655;28;20021;-79
2023/12/06 09:08:57;;;;;;;0.73;0.73;;;;;;;;;;5071254;28;20028;-78
2023/12/06 09:11:22;;;;;;;1.65;1.55;;;;;;;;;;5069899;28;20135;-78
2023/12/06 09:13:48;;;;;;;1.10;1.10;;;;;;;;;;5069975;28;20473;-80
2023/12/06 09:16:14;;;;;;;1.40;1.30;;;;;;;;;;5069845;28;20372;-77
2023/12/06 09:18:39;;;;;;;1.58;1.48;;;;;;;;;;5070620;28;20020;-78
2023/12/06 09:21:05;;;;;;;3.28;2.35;;;;;;;;;;5071310;28;20174;-79
2023/12/06 09:23:31;;;;;;;4.18;1.17;;;;;;;;;;5066790;28;20028;-79
2023/12/06 09:25:56;;;;;;;5.35;1.70;;;;;;;;;;5068669;28;20028;-79
2023/12/06 09:28:22;;;;;;;2.05;1.58;;;;;;;;;;5071712;28;20067;-78
2023/12/06 09:30:47;;;;;;;1.88;1.67;;;;;;;;;;5074854;28;20102;-77
2023/12/06 09:33:13;;;;;;;3.08;1.15;;;;;;;;;;5072102;28;20519;-80
2023/12/06 09:35:40;;;;;;;2.55;1.80;;;;;;;;;;5073226;28;20031;-77
2023/12/06 09:38:05;;;;;;;1.70;1.17;;;;;;;;;;5069629;28;20036;-78
2023/12/06 09:40:31;;;;;;;1.23;1.13;;;;;;;;;;5069137;28;20034;-79
2023/12/06 09:43:00;;;;;;;1.85;1.70;;;;;;;;;;5069732;28;20031;-78
2023/12/06 09:45:26;;;;;;;5.07;1.58;;;;;;;;;;5070390;28;20036;-78
2023/12/06 09:47:53;;;;;;;2.58;2.42;;;;;;;;;;5068757;28;20032;-77
2023/12/06 09:50:19;;;;;;;1.60;1.25;;;;;;;;;;5069184;28;20035;-77
2023/12/06 09:52:50;;;;;;;1.30;1.20;;;;;;;;;;5070535;28;20029;-77
2023/12/06 09:55:18;;;;;;;2.10;1.13;;;;;;;;;;5068119;28;20075;-79
2023/12/06 09:57:46;;;;;;;0.73;0.70;;;;;;;;;;5068981;28;20106;-79
2023/12/06 10:00:13;;;;;;;1.20;1.10;;;;;;;;;;5068961;28;20111;-79
2023/12/06 10:02:53;;;;;;;2.08;1.35;;;;;;;;;;5100617;28;20518;-79
2023/12/06 10:05:19;;;;;;;1.45;1.08;;;;;;;;;;5068850;28;20032;-77
2023/12/06 10:07:45;;;;;;;2.70;1.48;;;;;;;;;;5069673;28;20029;-75
2023/12/06 10:10:22;;;;;;;0.80;0.80;;;;;;;;;;5067921;28;20139;-78
2023/12/06 10:12:52;;;;;;;1.55;1.45;;;;;;;;;;5067041;28;20029;-77
2023/12/06 10:15:19;;;;;;;1.48;1.38;;;;;;;;;;5067561;28;20021;-79
2023/12/06 10:17:45;;;;;;;1.15;1.13;;;;;;;;;;5066676;28;20033;-80
2023/12/06 10:20:10;;;;;;;1.83;0.82;;;;;;;;;;5064684;28;20028;-79
2023/12/06 10:22:36;;;;;;;1.58;1.00;;;;;;;;;;5066960;28;20044;-80
2023/12/06 10:25:05;;;;;;;2.30;0.93;;;;;;;;;;5066636;28;20044;-77
2023/12/06 10:27:30;;;;;;;1.20;1.10;;;;;;;;;;5068976;28;20507;-78
2023/12/06 10:29:56;;;;;;;1.85;1.00;;;;;;;;;;5066913;28;20052;-81
2023/12/06 10:32:22;;;;;;;0.60;0.60;;;;;;;;;;5068005;28;20126;-80
2023/12/06 10:34:49;;;;;;;3.03;0.98;;;;;;;;;;5067813;28;21279;-78
2023/12/06 10:37:19;;;;;;;1.60;1.42;;;;;;;;;;5068048;28;20764;-81
2023/12/06 10:39:47;;;;;;;1.48;0.80;;;;;;;;;;5066934;28;20039;-80
2023/12/06 10:42:17;;;;;;;0.50;0.50;;;;;;;;;;5069051;28;20089;-78
2023/12/06 10:44:42;;;;;;;2.03;1.20;;;;;;;;;;5063508;28;20024;-78
2023/12/06 10:47:09;;;;;;;0.60;0.60;;;;;;;;;;5066169;28;20090;-78
2023/12/06 10:49:37;;;;;;;0.52;0.52;;;;;;;;;;5067390;28;20772;-79
2023/12/06 10:52:04;;;;;;;0.70;0.63;;;;;;;;;;5067870;28;20051;-79
2023/12/06 10:54:29;;;;;;;1.38;0.88;;;;;;;;;;5064950;28;20029;-77
2023/12/06 10:56:56;;;;;;;3.63;2.17;;;;;;;;;;5067778;28;20078;-80
2023/12/06 10:59:25;;;;;;;0.57;0.57;;;;;;;;;;5068494;28;20027;-79
2023/12/06 11:01:56;;;;;;;1.05;0.73;;;;;;;;;;5066031;28;20032;-77
2023/12/06 11:04:25;;;;;;;0.63;0.63;;;;;;;;;;5066515;28;20032;-78
2023/12/06 11:06:59;;;;;;;1.98;1.50;;;;;;;;;;5065048;28;20032;-79
2023/12/06 11:09:42;;;;;;;3.30;1.17;;;;;;;;;;5065227;28;20082;-77
2023/12/06 11:12:47;;;;;;;0.80;0.80;;;;;;;;;;5067750;28;20037;-79
2023/12/06 11:15:24;;;;;;;1.33;1.20;;;;;;;;;;5067763;28;20036;-78
2023/12/06 11:18:15;;;;;;;4.18;1.23;;;;;;;;;;5058968;28;20029;-76
2023/12/06 11:20:42;;;;;;;1.75;1.65;;;;;;;;;;5062328;28;20031;-77
2023/12/06 11:23:10;;;;;;;3.50;1.52;;;;;;;;;;5066394;28;20581;-77
2023/12/06 11:25:47;;;;;;;2.50;2.20;;;;;;;;;;5062826;28;20056;-78
2023/12/06 11:28:14;;;;;;;1.20;1.10;;;;;;;;;;5068939;28;20032;-78
2023/12/06 11:30:50;;;;;;;2.10;1.90;;;;;;;;;;5064493;28;20472;-80
2023/12/06 11:33:17;;;;;;;2.03;1.40;;;;;;;;;;5065824;28;20476;-77
2023/12/06 11:35:53;;;;;;;1.23;1.13;;;;;;;;;;5067538;28;20523;-77
2023/12/06 11:38:19;;;;;;;2.17;2.08;;;;;;;;;;5068652;28;20039;-77
2023/12/06 11:40:50;;;;;;;4.53;2.45;;;;;;;;;;5066061;28;20024;-76
2023/12/06 11:43:16;;;;;;;2.38;1.60;;;;;;;;;;5066759;28;20028;-77
2023/12/06 11:45:42;;;;;;;1.10;1.00;;;;;;;;;;5066855;28;20032;-78
2023/12/06 11:48:12;;;;;;;0.98;0.98;;;;;;;;;;5066876;28;20028;-78
2023/12/06 11:50:44;;;;;;;8.27;2.28;;;;;;;;;;5069184;28;20025;-78
2023/12/06 11:53:11;;;;;;;1.05;0.93;;;;;;;;;;5068155;28;20024;-76
2023/12/06 11:55:37;;;;;;;2.25;1.40;;;;;;;;;;5067620;28;20048;-77
2023/12/06 11:58:10;;;;;;;1.13;1.10;;;;;;;;;;5066101;28;20468;-76
2023/12/06 12:00:41;;;;;;;1.23;1.10;;;;;;;;;;5064288;28;20032;-77
2023/12/06 12:03:07;;;;;;;2.38;1.10;;;;;;;;;;5065368;28;20495;-78
2023/12/06 12:05:33;;;;;;;1.17;1.08;;;;;;;;;;5068144;28;20027;-78
2023/12/06 12:08:02;;;;;;;1.55;1.45;;;;;;;;;;5067246;28;20033;-80
2023/12/06 12:10:31;;;;;;;2.57;0.97;;;;;;;;;;5067400;28;20819;-77
2023/12/06 12:12:57;;;;;;;0.75;0.75;;;;;;;;;;5067725;28;20277;-76
2023/12/06 12:15:26;;;;;;;1.50;1.40;;;;;;;;;;5066931;28;20028;-78
2023/12/06 12:17:52;;;;;;;0.93;0.65;;;;;;;;;;5067196;28;20024;-78
2023/12/06 12:20:17;;;;;;;0.98;0.88;;;;;;;;;;5066790;28;20533;-77
2023/12/06 12:22:53;;;;;;;1.17;0.98;;;;;;;;;;5067564;28;20044;-76
2023/12/06 12:25:19;;;;;;;1.40;1.30;;;;;;;;;;5068246;28;20025;-78
2023/12/06 12:27:46;;;;;;;1.67;1.33;;;;;;;;;;5067659;28;20024;-77
2023/12/06 12:30:13;;;;;;;0.93;0.93;;;;;;;;;;5068251;28;20685;-78
2023/12/06 12:32:42;;;;;;;1.38;1.27;;;;;;;;;;5068909;28;20020;-79
2023/12/06 12:35:09;;;;;;;1.42;1.35;;;;;;;;;;5068039;28;20032;-82
2023/12/06 12:37:35;;;;;;;1.77;1.35;;;;;;;;;;5068659;28;20036;-79
2023/12/06 12:40:01;;;;;;;3.85;0.80;;;;;;;;;;5067396;28;20044;-78
2023/12/06 12:42:27;;;;;;;2.10;1.27;;;;;;;;;;5065032;28;20446;-77
2023/12/06 12:44:54;;;;;;;2.50;1.70;;;;;;;;;;5065236;28;20031;-79
2023/12/06 12:47:20;;;;;;;3.30;1.20;;;;;;;;;;5068736;28;20028;-77
2023/12/06 12:49:48;;;;;;;0.85;0.80;;;;;;;;;;5068639;28;20039;-78
2023/12/06 12:52:15;;;;;;;0.85;0.85;;;;;;;;;;5067969;28;20090;-77
2023/12/06 12:54:41;;;;;;;1.48;1.38;;;;;;;;;;5070587;28;20024;-77
2023/12/06 12:57:06;;;;;;;1.45;1.10;;;;;;;;;;5068497;28;20384;-79
2023/12/06 12:59:32;;;;;;;0.82;0.82;;;;;;;;;;5069142;28;20036;-76
2023/12/06 13:01:58;;;;;;;1.17;1.08;;;;;;;;;;5070791;28;20030;-77
2023/12/06 13:04:23;;;;;;;1.27;0.90;;;;;;;;;;5068675;28;20032;-79
2023/12/06 13:06:52;;;;;;;1.83;1.27;;;;;;;;;;5067590;28;20518;-78
2023/12/06 13:09:18;;;;;;;2.58;1.52;;;;;;;;;;5068876;28;20075;-78
2023/12/06 13:11:44;;;;;;;1.13;0.90;;;;;;;;;;5062063;28;20053;-78
2023/12/06 13:14:10;;;;;;;1.50;1.27;;;;;;;;;;5069418;28;20058;-78
2023/12/06 13:16:35;;;;;;;1.00;0.93;;;;;;;;;;5068621;28;20480;-75
2023/12/06 13:19:01;;;;;;;1.08;1.08;;;;;;;;;;5070057;28;20047;-78
2023/12/06 13:21:29;;;;;;;0.70;0.70;;;;;;;;;;5067766;28;20024;-79
2023/12/06 13:23:54;;;;;;;1.75;0.85;;;;;;;;;;5068607;28;20020;-78
2023/12/06 13:26:21;;;;;;;1.77;1.58;;;;;;;;;;5067902;28;20039;-80
2023/12/06 13:28:46;;;;;;;1.00;1.00;;;;;;;;;;5066539;28;20028;-77
2023/12/06 13:31:12;;;;;;;3.13;2.38;;;;;;;;;;5070554;28;20055;-79
2023/12/06 13:33:37;;;;;;;2.15;1.80;;;;;;;;;;5070023;28;20016;-76
2023/12/06 13:36:03;;;;;;;1.15;0.65;;;;;;;;;;5063844;28;20395;-76
2023/12/06 13:38:29;;;;;;;0.98;0.55;;;;;;;;;;5069409;28;20427;-77
2023/12/06 13:40:54;;;;;;;1.30;0.90;;;;;;;;;;5069967;28;20032;-76
2023/12/06 13:43:19;;;;;;;1.25;1.15;;;;;;;;;;5067729;28;20074;-78
2023/12/06 13:45:45;;;;;;;2.72;1.52;;;;;;;;;;5070091;28;20032;-77
2023/12/06 13:48:10;;;;;;;1.27;0.68;;;;;;;;;;5070776;28;20408;-77
2023/12/06 13:50:36;;;;;;;1.10;1.00;;;;;;;;;;5070751;28;20031;-79
2023/12/06 13:53:02;;;;;;;0.93;0.82;;;;;;;;;;5073626;28;20097;-78
2023/12/06 13:55:27;;;;;;;3.20;0.77;;;;;;;;;;5074342;28;20056;-78
2023/12/06 13:57:53;;;;;;;1.80;1.40;;;;;;;;;;5074147;28;20028;-79
2023/12/06 14:00:19;;;;;;;1.20;1.02;;;;;;;;;;5074688;28;20036;-80
2023/12/06 14:02:44;;;;;;;1.15;0.98;;;;;;;;;;5067498;28;20063;-79
2023/12/06 14:05:09;;;;;;;1.13;1.02;;;;;;;;;;5069479;28;20025;-77
2023/12/06 14:07:35;;;;;;;1.33;1.23;;;;;;;;;;5072541;28;20032;-79
2023/12/06 14:10:00;;;;;;;2.03;1.42;;;;;;;;;;5071133;28;20020;-77
2023/12/06 14:12:26;;;;;;;2.10;1.50;;;;;;;;;;5073069;28;20033;-79
2023/12/06 14:14:51;;;;;;;0.73;0.43;;;;;;;;;;5073542;28;20033;-78
2023/12/06 14:17:16;;;;;;;0.85;0.70;;;;;;;;;;5074615;28;20082;-77
2023/12/06 14:19:42;;;;;;;0.73;0.73;;;;;;;;;;5069118;28;20104;-79
2023/12/06 14:22:07;;;;;;;3.80;1.27;;;;;;;;;;5070022;28;20031;-77
2023/12/06 14:24:33;;;;;;;1.17;0.95;;;;;;;;;;5070413;28;20028;-77
2023/12/06 14:26:58;;;;;;;3.08;0.93;;;;;;;;;;5066042;28;20451;-78
2023/12/06 14:29:23;;;;;;;1.40;1.27;;;;;;;;;;5071108;28;21853;-78
2023/12/06 14:31:49;;;;;;;2.95;1.58;;;;;;;;;;5071845;28;20039;-79
2023/12/06 14:34:14;;;;;;;1.55;1.20;;;;;;;;;;5068381;28;20047;-77
2023/12/06 14:36:40;;;;;;;1.15;1.08;;;;;;;;;;5065820;28;20119;-77
2023/12/06 14:39:10;;;;;;;3.03;1.48;;;;;;;;;;5069608;28;20028;-78